sensor_id;sensor_type;location;lat;lon;timestamp;temperature;humidity
39969;DHT22;25648;47.808;19.004;2023-01-31T00:01:30;7.90;66.70
39969;DHT22;25648;47.808;19.004;2023-01-31T00:04:01;7.90;67.80
39969;DHT22;25648;47.808;19.004;2023-01-31T00:06:30;7.80;67.60
39969;DHT22;25648;47.808;19.004;2023-01-31T00:08:57;7.50;69.60
39969;DHT22;25648;47.808;19.004;2023-01-31T00:11:25;7.50;70.60
39969;DHT22;25648;47.808;19.004;2023-01-31T00:13:51;7.70;69.50
39969;DHT22;25648;47.808;19.004;2023-01-31T00:16:18;7.60;69.60
39969;DHT22;25648;47.808;19.004;2023-01-31T00:18:45;7.60;70.30
39969;DHT22;25648;47.808;19.004;2023-01-31T00:21:13;7.70;70.30
39969;DHT22;25648;47.808;19.004;2023-01-31T00:23:41;7.80;69.60
39969;DHT22;25648;47.808;19.004;2023-01-31T00:26:23;7.60;69.30
39969;DHT22;25648;47.808;19.004;2023-01-31T00:28:51;7.60;69.90
39969;DHT22;25648;47.808;19.004;2023-01-31T00:31:18;7.60;70.40
39969;DHT22;25648;47.808;19.004;2023-01-31T00:33:46;7.50;70.60
39969;DHT22;25648;47.808;19.004;2023-01-31T00:36:16;7.50;70.10
39969;DHT22;25648;47.808;19.004;2023-01-31T00:38:42;7.60;70.60
39969;DHT22;25648;47.808;19.004;2023-01-31T00:41:09;7.50;70.10
39969;DHT22;25648;47.808;19.004;2023-01-31T00:43:35;7.60;70.30
39969;DHT22;25648;47.808;19.004;2023-01-31T00:46:02;8.10;69.00
39969;DHT22;25648;47.808;19.004;2023-01-31T00:48:27;8.30;67.80
39969;DHT22;25648;47.808;19.004;2023-01-31T00:50:53;8.00;68.00
39969;DHT22;25648;47.808;19.004;2023-01-31T00:53:19;8.00;67.90
39969;DHT22;25648;47.808;19.004;2023-01-31T00:56:00;8.20;68.00
39969;DHT22;25648;47.808;19.004;2023-01-31T00:58:26;8.40;67.50
39969;DHT22;25648;47.808;19.004;2023-01-31T01:00:53;8.50;66.30
39969;DHT22;25648;47.808;19.004;2023-01-31T01:03:18;8.50;66.40
39969;DHT22;25648;47.808;19.004;2023-01-31T01:05:44;8.70;65.70
39969;DHT22;25648;47.808;19.004;2023-01-31T01:08:10;8.80;64.80
39969;DHT22;25648;47.808;19.004;2023-01-31T01:10:36;8.90;64.50
39969;DHT22;25648;47.808;19.004;2023-01-31T01:13:02;8.80;64.60
39969;DHT22;25648;47.808;19.004;2023-01-31T01:15:30;8.50;64.70
39969;DHT22;25648;47.808;19.004;2023-01-31T01:17:55;8.10;65.80
39969;DHT22;25648;47.808;19.004;2023-01-31T01:20:21;8.10;66.40
39969;DHT22;25648;47.808;19.004;2023-01-31T01:22:47;8.10;65.90
39969;DHT22;25648;47.808;19.004;2023-01-31T01:25:13;8.20;65.80
39969;DHT22;25648;47.808;19.004;2023-01-31T01:27:38;8.20;66.00
39969;DHT22;25648;47.808;19.004;2023-01-31T01:30:05;8.30;65.50
39969;DHT22;25648;47.808;19.004;2023-01-31T01:32:31;8.40;65.10
39969;DHT22;25648;47.808;19.004;2023-01-31T01:34:56;8.50;64.10
39969;DHT22;25648;47.808;19.004;2023-01-31T01:37:22;8.50;64.20
39969;DHT22;25648;47.808;19.004;2023-01-31T01:39:49;8.30;65.00
39969;DHT22;25648;47.808;19.004;2023-01-31T01:42:16;8.50;64.20
39969;DHT22;25648;47.808;19.004;2023-01-31T01:45:00;8.60;63.40
39969;DHT22;25648;47.808;19.004;2023-01-31T01:47:49;8.30;63.90
39969;DHT22;25648;47.808;19.004;2023-01-31T01:50:33;8.30;64.40
39969;DHT22;25648;47.808;19.004;2023-01-31T01:53:15;8.40;64.00
39969;DHT22;25648;47.808;19.004;2023-01-31T01:55:46;8.60;64.50
39969;DHT22;25648;47.808;19.004;2023-01-31T01:58:21;9.00;63.20
39969;DHT22;25648;47.808;19.004;2023-01-31T02:00:49;9.10;62.50
39969;DHT22;25648;47.808;19.004;2023-01-31T02:03:15;9.30;62.40
39969;DHT22;25648;47.808;19.004;2023-01-31T02:08:10;9.50;61.50
39969;DHT22;25648;47.808;19.004;2023-01-31T02:10:49;9.50;61.20
39969;DHT22;25648;47.808;19.004;2023-01-31T02:13:16;9.40;61.60
39969;DHT22;25648;47.808;19.004;2023-01-31T02:15:43;9.30;62.00
39969;DHT22;25648;47.808;19.004;2023-01-31T02:18:09;9.50;61.30
39969;DHT22;25648;47.808;19.004;2023-01-31T02:42:39;9.60;60.50
39969;DHT22;25648;47.808;19.004;2023-01-31T02:45:27;9.50;61.10
39969;DHT22;25648;47.808;19.004;2023-01-31T02:51:07;9.20;61.60
39969;DHT22;25648;47.808;19.004;2023-01-31T02:54:06;9.20;61.70
39969;DHT22;25648;47.808;19.004;2023-01-31T02:56:31;9.20;62.10
39969;DHT22;25648;47.808;19.004;2023-01-31T02:59:07;9.10;61.70
39969;DHT22;25648;47.808;19.004;2023-01-31T03:01:44;8.70;62.60
39969;DHT22;25648;47.808;19.004;2023-01-31T03:04:12;8.40;62.50
39969;DHT22;25648;47.808;19.004;2023-01-31T03:07:03;8.40;62.70
39969;DHT22;25648;47.808;19.004;2023-01-31T03:09:36;8.40;62.80
39969;DHT22;25648;47.808;19.004;2023-01-31T03:14:32;8.30;63.10
39969;DHT22;25648;47.808;19.004;2023-01-31T03:17:23;8.30;63.30
39969;DHT22;25648;47.808;19.004;2023-01-31T03:22:40;8.80;61.90
39969;DHT22;25648;47.808;19.004;2023-01-31T03:25:09;8.80;61.80
39969;DHT22;25648;47.808;19.004;2023-01-31T03:27:37;8.80;61.40
39969;DHT22;25648;47.808;19.004;2023-01-31T03:30:09;8.90;61.80
39969;DHT22;25648;47.808;19.004;2023-01-31T03:32:43;9.10;60.70
39969;DHT22;25648;47.808;19.004;2023-01-31T03:35:10;9.10;60.90
39969;DHT22;25648;47.808;19.004;2023-01-31T03:37:49;9.30;60.40
39969;DHT22;25648;47.808;19.004;2023-01-31T03:40:30;9.30;59.80
39969;DHT22;25648;47.808;19.004;2023-01-31T03:43:10;9.30;60.20
39969;DHT22;25648;47.808;19.004;2023-01-31T03:45:46;9.30;60.00
39969;DHT22;25648;47.808;19.004;2023-01-31T03:48:14;9.20;60.10
39969;DHT22;25648;47.808;19.004;2023-01-31T03:51:05;9.40;60.20
39969;DHT22;25648;47.808;19.004;2023-01-31T03:53:34;9.10;60.20
39969;DHT22;25648;47.808;19.004;2023-01-31T03:58:49;9.20;59.80
39969;DHT22;25648;47.808;19.004;2023-01-31T04:01:17;9.20;59.90
39969;DHT22;25648;47.808;19.004;2023-01-31T04:03:54;9.10;60.10
39969;DHT22;25648;47.808;19.004;2023-01-31T04:06:20;9.00;60.00
39969;DHT22;25648;47.808;19.004;2023-01-31T04:08:46;8.90;60.70
39969;DHT22;25648;47.808;19.004;2023-01-31T04:11:14;9.00;60.80
39969;DHT22;25648;47.808;19.004;2023-01-31T04:13:41;8.90;60.10
39969;DHT22;25648;47.808;19.004;2023-01-31T04:16:06;8.90;60.80
39969;DHT22;25648;47.808;19.004;2023-01-31T04:18:33;9.00;60.30
39969;DHT22;25648;47.808;19.004;2023-01-31T04:20:59;8.80;61.20
39969;DHT22;25648;47.808;19.004;2023-01-31T04:23:25;8.80;61.40
39969;DHT22;25648;47.808;19.004;2023-01-31T04:25:54;9.00;61.00
39969;DHT22;25648;47.808;19.004;2023-01-31T04:28:20;9.30;60.60
39969;DHT22;25648;47.808;19.004;2023-01-31T04:30:54;9.30;60.20
39969;DHT22;25648;47.808;19.004;2023-01-31T04:33:20;9.60;59.50
39969;DHT22;25648;47.808;19.004;2023-01-31T04:35:46;9.50;60.00
39969;DHT22;25648;47.808;19.004;2023-01-31T04:38:11;9.50;59.80
39969;DHT22;25648;47.808;19.004;2023-01-31T04:40:37;9.30;60.00
39969;DHT22;25648;47.808;19.004;2023-01-31T04:43:03;9.40;60.10
39969;DHT22;25648;47.808;19.004;2023-01-31T04:45:28;9.40;60.50
39969;DHT22;25648;47.808;19.004;2023-01-31T04:47:54;9.40;60.50
39969;DHT22;25648;47.808;19.004;2023-01-31T04:50:20;9.40;60.40
39969;DHT22;25648;47.808;19.004;2023-01-31T04:52:49;9.40;61.00
39969;DHT22;25648;47.808;19.004;2023-01-31T04:55:15;9.40;60.50
39969;DHT22;25648;47.808;19.004;2023-01-31T04:57:41;9.20;61.70
39969;DHT22;25648;47.808;19.004;2023-01-31T05:00:07;8.90;62.70
39969;DHT22;25648;47.808;19.004;2023-01-31T05:02:33;9.20;62.80
39969;DHT22;25648;47.808;19.004;2023-01-31T05:04:59;9.40;62.40
39969;DHT22;25648;47.808;19.004;2023-01-31T05:07:24;9.50;62.30
39969;DHT22;25648;47.808;19.004;2023-01-31T05:09:50;9.40;62.70
39969;DHT22;25648;47.808;19.004;2023-01-31T05:12:16;8.80;63.80
39969;DHT22;25648;47.808;19.004;2023-01-31T05:14:41;8.90;65.30
39969;DHT22;25648;47.808;19.004;2023-01-31T05:17:07;9.10;64.70
39969;DHT22;25648;47.808;19.004;2023-01-31T05:19:33;9.20;65.00
39969;DHT22;25648;47.808;19.004;2023-01-31T05:21:58;9.20;64.50
39969;DHT22;25648;47.808;19.004;2023-01-31T05:24:27;9.30;64.90
39969;DHT22;25648;47.808;19.004;2023-01-31T05:26:53;9.40;63.10
39969;DHT22;25648;47.808;19.004;2023-01-31T05:29:25;9.50;64.20
39969;DHT22;25648;47.808;19.004;2023-01-31T05:31:56;9.80;62.80
39969;DHT22;25648;47.808;19.004;2023-01-31T05:34:26;9.80;62.60
39969;DHT22;25648;47.808;19.004;2023-01-31T05:36:55;9.90;62.90
39969;DHT22;25648;47.808;19.004;2023-01-31T05:39:20;9.40;62.90
39969;DHT22;25648;47.808;19.004;2023-01-31T05:41:46;8.90;64.80
39969;DHT22;25648;47.808;19.004;2023-01-31T05:44:12;9.00;64.80
39969;DHT22;25648;47.808;19.004;2023-01-31T05:46:39;9.00;64.50
39969;DHT22;25648;47.808;19.004;2023-01-31T05:49:05;8.90;64.50
39969;DHT22;25648;47.808;19.004;2023-01-31T05:51:30;8.70;63.90
39969;DHT22;25648;47.808;19.004;2023-01-31T05:53:56;8.50;65.00
39969;DHT22;25648;47.808;19.004;2023-01-31T05:56:22;8.40;65.50
39969;DHT22;25648;47.808;19.004;2023-01-31T05:58:49;8.50;64.60
39969;DHT22;25648;47.808;19.004;2023-01-31T06:01:18;8.40;64.80
39969;DHT22;25648;47.808;19.004;2023-01-31T06:03:44;8.80;64.30
39969;DHT22;25648;47.808;19.004;2023-01-31T06:06:10;8.80;63.80
39969;DHT22;25648;47.808;19.004;2023-01-31T06:08:36;9.20;62.90
39969;DHT22;25648;47.808;19.004;2023-01-31T06:11:02;9.50;62.20
39969;DHT22;25648;47.808;19.004;2023-01-31T06:13:29;9.80;60.70
39969;DHT22;25648;47.808;19.004;2023-01-31T06:15:55;9.60;60.60
39969;DHT22;25648;47.808;19.004;2023-01-31T06:18:21;9.20;61.80
39969;DHT22;25648;47.808;19.004;2023-01-31T06:20:47;9.30;62.00
39969;DHT22;25648;47.808;19.004;2023-01-31T06:23:13;9.40;61.90
39969;DHT22;25648;47.808;19.004;2023-01-31T06:25:38;9.40;60.40
39969;DHT22;25648;47.808;19.004;2023-01-31T06:28:04;9.50;60.90
39969;DHT22;25648;47.808;19.004;2023-01-31T06:30:30;9.50;60.40
39969;DHT22;25648;47.808;19.004;2023-01-31T06:32:58;9.00;61.00
39969;DHT22;25648;47.808;19.004;2023-01-31T06:35:24;9.00;61.70
39969;DHT22;25648;47.808;19.004;2023-01-31T06:37:50;8.60;62.40
39969;DHT22;25648;47.808;19.004;2023-01-31T06:40:16;8.40;62.40
39969;DHT22;25648;47.808;19.004;2023-01-31T06:42:42;8.30;62.60
39969;DHT22;25648;47.808;19.004;2023-01-31T06:45:08;8.40;63.10
39969;DHT22;25648;47.808;19.004;2023-01-31T06:47:34;8.40;62.50
39969;DHT22;25648;47.808;19.004;2023-01-31T06:50:00;8.50;62.40
39969;DHT22;25648;47.808;19.004;2023-01-31T06:52:25;8.30;62.80
39969;DHT22;25648;47.808;19.004;2023-01-31T06:54:51;8.40;62.40
39969;DHT22;25648;47.808;19.004;2023-01-31T06:57:17;8.40;61.80
39969;DHT22;25648;47.808;19.004;2023-01-31T06:59:42;8.30;62.00
39969;DHT22;25648;47.808;19.004;2023-01-31T07:02:09;8.00;62.90
39969;DHT22;25648;47.808;19.004;2023-01-31T07:04:35;7.90;62.70
39969;DHT22;25648;47.808;19.004;2023-01-31T07:07:01;7.90;63.40
39969;DHT22;25648;47.808;19.004;2023-01-31T07:09:27;8.00;62.60
39969;DHT22;25648;47.808;19.004;2023-01-31T07:11:53;7.90;62.10
39969;DHT22;25648;47.808;19.004;2023-01-31T07:14:18;8.00;62.80
39969;DHT22;25648;47.808;19.004;2023-01-31T07:16:44;8.10;62.70
39969;DHT22;25648;47.808;19.004;2023-01-31T07:19:10;8.40;61.70
39969;DHT22;25648;47.808;19.004;2023-01-31T07:21:36;8.30;61.20
39969;DHT22;25648;47.808;19.004;2023-01-31T07:24:03;8.10;61.90
39969;DHT22;25648;47.808;19.004;2023-01-31T07:26:29;8.30;62.00
39969;DHT22;25648;47.808;19.004;2023-01-31T07:28:55;8.30;61.70
39969;DHT22;25648;47.808;19.004;2023-01-31T07:31:20;8.30;61.10
39969;DHT22;25648;47.808;19.004;2023-01-31T07:33:46;8.50;60.80
39969;DHT22;25648;47.808;19.004;2023-01-31T07:36:14;8.30;61.00
39969;DHT22;25648;47.808;19.004;2023-01-31T07:38:40;8.60;60.50
39969;DHT22;25648;47.808;19.004;2023-01-31T07:41:06;8.40;60.50
39969;DHT22;25648;47.808;19.004;2023-01-31T07:43:33;8.50;60.60
39969;DHT22;25648;47.808;19.004;2023-01-31T07:45:59;8.70;59.80
39969;DHT22;25648;47.808;19.004;2023-01-31T07:48:26;8.80;59.70
39969;DHT22;25648;47.808;19.004;2023-01-31T07:51:01;8.70;60.10
39969;DHT22;25648;47.808;19.004;2023-01-31T07:53:29;8.80;59.60
39969;DHT22;25648;47.808;19.004;2023-01-31T07:56:07;8.80;59.30
39969;DHT22;25648;47.808;19.004;2023-01-31T07:58:34;9.40;58.70
39969;DHT22;25648;47.808;19.004;2023-01-31T08:01:00;9.70;57.90
39969;DHT22;25648;47.808;19.004;2023-01-31T08:03:45;9.90;57.60
39969;DHT22;25648;47.808;19.004;2023-01-31T08:06:12;9.90;57.40
39969;DHT22;25648;47.808;19.004;2023-01-31T08:08:39;10.00;57.40
39969;DHT22;25648;47.808;19.004;2023-01-31T08:11:05;10.10;57.00
39969;DHT22;25648;47.808;19.004;2023-01-31T08:13:32;10.20;56.80
39969;DHT22;25648;47.808;19.004;2023-01-31T08:15:58;10.50;56.60
39969;DHT22;25648;47.808;19.004;2023-01-31T08:18:24;10.70;56.10
39969;DHT22;25648;47.808;19.004;2023-01-31T08:20:50;10.40;56.20
39969;DHT22;25648;47.808;19.004;2023-01-31T08:23:16;10.40;56.50
39969;DHT22;25648;47.808;19.004;2023-01-31T08:25:42;10.50;56.20
39969;DHT22;25648;47.808;19.004;2023-01-31T08:28:08;11.00;55.70
39969;DHT22;25648;47.808;19.004;2023-01-31T08:30:33;11.50;54.50
39969;DHT22;25648;47.808;19.004;2023-01-31T08:32:59;11.60;54.30
39969;DHT22;25648;47.808;19.004;2023-01-31T08:35:25;11.60;53.90
39969;DHT22;25648;47.808;19.004;2023-01-31T08:38:13;11.50;53.60
39969;DHT22;25648;47.808;19.004;2023-01-31T08:40:39;11.20;54.60
39969;DHT22;25648;47.808;19.004;2023-01-31T08:43:05;11.40;54.20
39969;DHT22;25648;47.808;19.004;2023-01-31T08:45:31;11.50;54.00
39969;DHT22;25648;47.808;19.004;2023-01-31T08:47:58;11.80;53.80
39969;DHT22;25648;47.808;19.004;2023-01-31T08:50:26;11.70;53.50
39969;DHT22;25648;47.808;19.004;2023-01-31T08:52:57;12.20;53.20
39969;DHT22;25648;47.808;19.004;2023-01-31T08:55:24;12.30;52.40
39969;DHT22;25648;47.808;19.004;2023-01-31T08:57:51;12.20;53.30
39969;DHT22;25648;47.808;19.004;2023-01-31T09:00:18;12.90;52.40
39969;DHT22;25648;47.808;19.004;2023-01-31T09:02:44;13.30;51.30
39969;DHT22;25648;47.808;19.004;2023-01-31T09:05:15;12.80;51.70
39969;DHT22;25648;47.808;19.004;2023-01-31T09:07:40;13.10;51.70
39969;DHT22;25648;47.808;19.004;2023-01-31T09:10:09;13.10;51.30
39969;DHT22;25648;47.808;19.004;2023-01-31T09:12:35;13.00;51.90
39969;DHT22;25648;47.808;19.004;2023-01-31T09:15:02;12.50;51.70
39969;DHT22;25648;47.808;19.004;2023-01-31T09:17:28;11.80;53.10
39969;DHT22;25648;47.808;19.004;2023-01-31T09:19:54;12.10;53.40
39969;DHT22;25648;47.808;19.004;2023-01-31T09:22:20;12.60;52.90
39969;DHT22;25648;47.808;19.004;2023-01-31T09:24:47;12.90;52.00
39969;DHT22;25648;47.808;19.004;2023-01-31T09:27:13;12.80;51.40
39969;DHT22;25648;47.808;19.004;2023-01-31T09:29:38;12.10;52.80
39969;DHT22;25648;47.808;19.004;2023-01-31T09:32:04;11.60;53.20
39969;DHT22;25648;47.808;19.004;2023-01-31T09:34:30;11.70;53.40
39969;DHT22;25648;47.808;19.004;2023-01-31T09:36:56;11.80;53.60
39969;DHT22;25648;47.808;19.004;2023-01-31T09:39:23;12.10;53.50
39969;DHT22;25648;47.808;19.004;2023-01-31T09:42:20;11.80;53.50
39969;DHT22;25648;47.808;19.004;2023-01-31T09:47:46;11.70;54.40
39969;DHT22;25648;47.808;19.004;2023-01-31T09:50:35;11.10;54.40
39969;DHT22;25648;47.808;19.004;2023-01-31T09:53:02;11.10;55.30
39969;DHT22;25648;47.808;19.004;2023-01-31T09:58:18;10.30;56.70
39969;DHT22;25648;47.808;19.004;2023-01-31T10:01:40;11.20;55.90
39969;DHT22;25648;47.808;19.004;2023-01-31T10:09:29;11.50;54.80
39969;DHT22;25648;47.808;19.004;2023-01-31T10:12:19;11.70;54.50
39969;DHT22;25648;47.808;19.004;2023-01-31T10:17:27;11.80;54.50
39969;DHT22;25648;47.808;19.004;2023-01-31T10:22:38;12.60;53.40
39969;DHT22;25648;47.808;19.004;2023-01-31T10:25:20;12.60;53.20
39969;DHT22;25648;47.808;19.004;2023-01-31T10:28:03;12.10;52.30
39969;DHT22;25648;47.808;19.004;2023-01-31T10:33:39;11.70;53.80
39969;DHT22;25648;47.808;19.004;2023-01-31T10:36:18;11.30;53.80
39969;DHT22;25648;47.808;19.004;2023-01-31T10:44:35;11.60;53.70
39969;DHT22;25648;47.808;19.004;2023-01-31T10:47:13;12.00;53.30
39969;DHT22;25648;47.808;19.004;2023-01-31T10:49:45;12.40;52.20
39969;DHT22;25648;47.808;19.004;2023-01-31T10:52:21;12.00;52.20
39969;DHT22;25648;47.808;19.004;2023-01-31T10:57:40;11.20;53.30
39969;DHT22;25648;47.808;19.004;2023-01-31T11:00:10;11.80;53.40
39969;DHT22;25648;47.808;19.004;2023-01-31T11:02:37;12.30;50.70
39969;DHT22;25648;47.808;19.004;2023-01-31T11:05:03;12.60;50.60
39969;DHT22;25648;47.808;19.004;2023-01-31T11:07:30;12.70;50.80
39969;DHT22;25648;47.808;19.004;2023-01-31T11:09:56;12.60;50.00
39969;DHT22;25648;47.808;19.004;2023-01-31T11:12:54;11.90;50.60
39969;DHT22;25648;47.808;19.004;2023-01-31T11:15:34;11.50;52.10
39969;DHT22;25648;47.808;19.004;2023-01-31T11:18:00;12.10;52.00
39969;DHT22;25648;47.808;19.004;2023-01-31T11:20:30;12.30;50.60
39969;DHT22;25648;47.808;19.004;2023-01-31T11:22:58;11.90;51.10
39969;DHT22;25648;47.808;19.004;2023-01-31T11:25:25;10.80;51.10
39969;DHT22;25648;47.808;19.004;2023-01-31T11:27:56;10.60;51.70
39969;DHT22;25648;47.808;19.004;2023-01-31T11:30:29;10.50;51.50
39969;DHT22;25648;47.808;19.004;2023-01-31T11:32:56;10.60;51.80
39969;DHT22;25648;47.808;19.004;2023-01-31T11:35:25;10.90;51.50
39969;DHT22;25648;47.808;19.004;2023-01-31T11:38:02;10.80;50.50
39969;DHT22;25648;47.808;19.004;2023-01-31T11:40:44;11.00;51.80
39969;DHT22;25648;47.808;19.004;2023-01-31T11:45:43;10.60;51.50
39969;DHT22;25648;47.808;19.004;2023-01-31T11:48:21;10.40;51.00
39969;DHT22;25648;47.808;19.004;2023-01-31T11:50:56;10.30;51.20
39969;DHT22;25648;47.808;19.004;2023-01-31T11:53:25;10.20;51.30
39969;DHT22;25648;47.808;19.004;2023-01-31T11:55:54;9.80;51.20
39969;DHT22;25648;47.808;19.004;2023-01-31T11:58:24;9.30;51.80
39969;DHT22;25648;47.808;19.004;2023-01-31T12:03:17;9.50;52.00
39969;DHT22;25648;47.808;19.004;2023-01-31T12:05:48;9.90;51.30
39969;DHT22;25648;47.808;19.004;2023-01-31T12:08:38;10.00;51.30
39969;DHT22;25648;47.808;19.004;2023-01-31T12:13:51;10.60;50.10
39969;DHT22;25648;47.808;19.004;2023-01-31T12:16:20;10.70;50.40
39969;DHT22;25648;47.808;19.004;2023-01-31T12:26:44;10.90;50.10
39969;DHT22;25648;47.808;19.004;2023-01-31T12:38:03;10.80;51.80
39969;DHT22;25648;47.808;19.004;2023-01-31T12:40:38;11.20;49.90
39969;DHT22;25648;47.808;19.004;2023-01-31T12:43:22;11.10;50.30
39969;DHT22;25648;47.808;19.004;2023-01-31T12:51:36;11.10;50.40
39969;DHT22;25648;47.808;19.004;2023-01-31T12:54:10;10.70;52.00
39969;DHT22;25648;47.808;19.004;2023-01-31T12:56:50;10.40;52.30
39969;DHT22;25648;47.808;19.004;2023-01-31T13:04:55;11.00;52.10
39969;DHT22;25648;47.808;19.004;2023-01-31T13:07:33;10.80;51.70
39969;DHT22;25648;47.808;19.004;2023-01-31T13:10:03;10.60;52.40
39969;DHT22;25648;47.808;19.004;2023-01-31T13:12:32;10.70;51.80
39969;DHT22;25648;47.808;19.004;2023-01-31T13:15:01;10.20;52.70
39969;DHT22;25648;47.808;19.004;2023-01-31T13:17:30;10.10;53.50
39969;DHT22;25648;47.808;19.004;2023-01-31T13:20:01;10.20;53.50
39969;DHT22;25648;47.808;19.004;2023-01-31T13:22:50;10.30;53.10
39969;DHT22;25648;47.808;19.004;2023-01-31T13:28:10;10.10;52.60
39969;DHT22;25648;47.808;19.004;2023-01-31T13:30:42;10.00;53.30
39969;DHT22;25648;47.808;19.004;2023-01-31T13:33:34;9.70;52.90
39969;DHT22;25648;47.808;19.004;2023-01-31T13:36:14;9.20;54.20
39969;DHT22;25648;47.808;19.004;2023-01-31T13:38:43;9.80;53.90
39969;DHT22;25648;47.808;19.004;2023-01-31T13:41:19;10.00;52.60
39969;DHT22;25648;47.808;19.004;2023-01-31T13:43:45;9.90;52.70
39969;DHT22;25648;47.808;19.004;2023-01-31T13:46:12;9.40;54.40
39969;DHT22;25648;47.808;19.004;2023-01-31T13:49:02;9.50;54.40
39969;DHT22;25648;47.808;19.004;2023-01-31T13:51:41;10.10;53.90
39969;DHT22;25648;47.808;19.004;2023-01-31T13:56:40;10.10;52.60
39969;DHT22;25648;47.808;19.004;2023-01-31T13:59:16;10.20;52.70
39969;DHT22;25648;47.808;19.004;2023-01-31T14:01:49;9.90;53.00
39969;DHT22;25648;47.808;19.004;2023-01-31T14:09:28;9.70;54.10
39969;DHT22;25648;47.808;19.004;2023-01-31T14:11:57;9.70;54.20
39969;DHT22;25648;47.808;19.004;2023-01-31T14:14:38;9.90;54.40
39969;DHT22;25648;47.808;19.004;2023-01-31T14:22:17;10.90;53.60
39969;DHT22;25648;47.808;19.004;2023-01-31T14:33:25;11.30;53.30
39969;DHT22;25648;47.808;19.004;2023-01-31T14:39:21;10.90;54.80
39969;DHT22;25648;47.808;19.004;2023-01-31T14:42:06;10.90;54.40
39969;DHT22;25648;47.808;19.004;2023-01-31T14:58:45;10.70;56.00
39969;DHT22;25648;47.808;19.004;2023-01-31T15:01:12;11.10;55.30
39969;DHT22;25648;47.808;19.004;2023-01-31T15:03:54;11.20;54.50
39969;DHT22;25648;47.808;19.004;2023-01-31T15:11:42;11.20;54.90
39969;DHT22;25648;47.808;19.004;2023-01-31T15:14:41;11.10;55.00
39969;DHT22;25648;47.808;19.004;2023-01-31T15:22:29;10.50;58.00
39969;DHT22;25648;47.808;19.004;2023-01-31T15:25:00;10.20;58.40
39969;DHT22;25648;47.808;19.004;2023-01-31T15:27:30;9.80;59.70
39969;DHT22;25648;47.808;19.004;2023-01-31T15:30:16;9.80;60.00
39969;DHT22;25648;47.808;19.004;2023-01-31T15:32:54;9.80;60.50
39969;DHT22;25648;47.808;19.004;2023-01-31T15:35:28;10.10;60.30
39969;DHT22;25648;47.808;19.004;2023-01-31T15:40:28;10.40;59.60
39969;DHT22;25648;47.808;19.004;2023-01-31T15:43:20;10.60;58.70
39969;DHT22;25648;47.808;19.004;2023-01-31T15:45:46;10.70;58.50
39969;DHT22;25648;47.808;19.004;2023-01-31T15:48:18;10.80;58.30
39969;DHT22;25648;47.808;19.004;2023-01-31T15:50:55;11.00;58.30
39969;DHT22;25648;47.808;19.004;2023-01-31T15:53:24;11.20;57.50
39969;DHT22;25648;47.808;19.004;2023-01-31T15:55:55;11.10;57.60
39969;DHT22;25648;47.808;19.004;2023-01-31T15:58:25;11.50;56.80
39969;DHT22;25648;47.808;19.004;2023-01-31T16:00:56;11.20;57.20
39969;DHT22;25648;47.808;19.004;2023-01-31T16:03:35;11.30;57.30
39969;DHT22;25648;47.808;19.004;2023-01-31T16:06:01;11.70;56.70
39969;DHT22;25648;47.808;19.004;2023-01-31T16:10:57;12.00;55.80
39969;DHT22;25648;47.808;19.004;2023-01-31T16:13:24;12.00;55.60
39969;DHT22;25648;47.808;19.004;2023-01-31T16:15:51;11.80;57.10
39969;DHT22;25648;47.808;19.004;2023-01-31T16:18:17;11.70;56.40
39969;DHT22;25648;47.808;19.004;2023-01-31T16:20:51;11.70;56.70
39969;DHT22;25648;47.808;19.004;2023-01-31T16:26:13;12.10;56.00
39969;DHT22;25648;47.808;19.004;2023-01-31T16:28:42;12.10;55.80
39969;DHT22;25648;47.808;19.004;2023-01-31T16:31:14;12.10;55.60
39969;DHT22;25648;47.808;19.004;2023-01-31T16:33:53;12.10;55.70
39969;DHT22;25648;47.808;19.004;2023-01-31T16:36:29;12.20;55.20
39969;DHT22;25648;47.808;19.004;2023-01-31T16:39:01;12.00;55.40
39969;DHT22;25648;47.808;19.004;2023-01-31T16:41:53;11.80;55.70
39969;DHT22;25648;47.808;19.004;2023-01-31T16:44:22;11.90;55.60
39969;DHT22;25648;47.808;19.004;2023-01-31T16:46:52;12.00;55.80
39969;DHT22;25648;47.808;19.004;2023-01-31T16:49:22;12.10;55.50
39969;DHT22;25648;47.808;19.004;2023-01-31T16:51:50;12.10;55.10
39969;DHT22;25648;47.808;19.004;2023-01-31T16:56:43;12.30;54.80
39969;DHT22;25648;47.808;19.004;2023-01-31T17:02:16;12.30;54.60
39969;DHT22;25648;47.808;19.004;2023-01-31T17:04:43;12.10;54.90
39969;DHT22;25648;47.808;19.004;2023-01-31T17:07:24;12.00;55.60
39969;DHT22;25648;47.808;19.004;2023-01-31T17:09:56;12.00;55.00
39969;DHT22;25648;47.808;19.004;2023-01-31T17:12:25;11.60;55.00
39969;DHT22;25648;47.808;19.004;2023-01-31T17:14:56;11.60;55.50
39969;DHT22;25648;47.808;19.004;2023-01-31T17:17:27;11.70;55.10
39969;DHT22;25648;47.808;19.004;2023-01-31T17:19:53;11.80;55.00
39969;DHT22;25648;47.808;19.004;2023-01-31T17:22:19;11.70;54.90
39969;DHT22;25648;47.808;19.004;2023-01-31T17:24:47;11.70;55.10
39969;DHT22;25648;47.808;19.004;2023-01-31T17:27:15;11.90;54.70
39969;DHT22;25648;47.808;19.004;2023-01-31T17:29:42;12.10;54.30
39969;DHT22;25648;47.808;19.004;2023-01-31T17:32:10;12.20;53.70
39969;DHT22;25648;47.808;19.004;2023-01-31T17:34:36;12.30;53.10
39969;DHT22;25648;47.808;19.004;2023-01-31T17:37:02;12.30;53.20
39969;DHT22;25648;47.808;19.004;2023-01-31T17:39:28;11.90;53.00
39969;DHT22;25648;47.808;19.004;2023-01-31T17:41:54;11.50;53.70
39969;DHT22;25648;47.808;19.004;2023-01-31T17:44:19;11.50;54.30
39969;DHT22;25648;47.808;19.004;2023-01-31T17:46:45;11.70;53.60
39969;DHT22;25648;47.808;19.004;2023-01-31T17:49:11;11.90;53.20
39969;DHT22;25648;47.808;19.004;2023-01-31T17:51:37;12.00;53.00
39969;DHT22;25648;47.808;19.004;2023-01-31T17:54:03;12.00;52.90
39969;DHT22;25648;47.808;19.004;2023-01-31T17:56:29;12.10;52.90
39969;DHT22;25648;47.808;19.004;2023-01-31T17:58:54;12.30;52.30
39969;DHT22;25648;47.808;19.004;2023-01-31T18:01:20;12.40;52.30
39969;DHT22;25648;47.808;19.004;2023-01-31T18:03:47;12.50;52.00
39969;DHT22;25648;47.808;19.004;2023-01-31T18:06:13;12.50;51.50
39969;DHT22;25648;47.808;19.004;2023-01-31T18:08:39;12.30;52.20
39969;DHT22;25648;47.808;19.004;2023-01-31T18:11:15;12.20;51.90
39969;DHT22;25648;47.808;19.004;2023-01-31T18:13:41;12.00;52.10
39969;DHT22;25648;47.808;19.004;2023-01-31T18:16:12;12.00;52.60
39969;DHT22;25648;47.808;19.004;2023-01-31T18:18:39;12.20;52.00
39969;DHT22;25648;47.808;19.004;2023-01-31T18:21:15;12.20;51.70
39969;DHT22;25648;47.808;19.004;2023-01-31T18:23:43;12.30;51.90
39969;DHT22;25648;47.808;19.004;2023-01-31T18:26:12;12.40;51.70
39969;DHT22;25648;47.808;19.004;2023-01-31T18:28:38;12.60;51.40